Time;durP1;ratioP1;P1;durP2;ratioP2;P2;SDS_P1;SDS_P2;PMS_P1;PMS_P2;Temp;Humidity;BMP_temperature;BMP_pressure;BME280_temperature;BME280_humidity;BME280_pressure;Samples;Min_cycle;Max_cycle;Signal;HPM_P1;HPM_P2
2022/02/22 00:01:33;;;;;;;21.00;3.40;;;7.30;99.90;;;;;;5014549;28;20041;-85
2022/02/22 00:03:59;;;;;;;14.52;2.50;;;7.20;99.90;;;;;;5014263;28;20026;-84
2022/02/22 00:06:25;;;;;;;16.35;2.70;;;7.20;99.90;;;;;;4997615;28;20080;-84
2022/02/22 00:08:50;;;;;;;21.63;3.22;;;7.20;99.90;;;;;;5014475;28;20109;-85
2022/02/22 00:11:16;;;;;;;15.43;2.72;;;7.10;99.90;;;;;;5014806;28;20459;-84
2022/02/22 00:13:42;;;;;;;23.00;3.67;;;6.80;99.90;;;;;;5015197;28;20140;-85
2022/02/22 00:16:07;;;;;;;25.85;3.70;;;6.80;99.90;;;;;;5014687;28;20038;-86
2022/02/22 00:18:33;;;;;;;14.23;2.75;;;6.70;99.90;;;;;;5014507;28;20033;-84
2022/02/22 00:20:59;;;;;;;29.23;3.15;;;6.60;99.90;;;;;;5015227;28;20010;-85
2022/02/22 00:23:24;;;;;;;28.45;3.90;;;6.60;99.90;;;;;;4997402;28;20036;-85
2022/02/22 00:25:50;;;;;;;30.27;3.60;;;6.60;99.90;;;;;;5014373;28;20088;-86
2022/02/22 00:28:19;;;;;;;24.02;2.92;;;6.60;99.90;;;;;;5014687;28;20072;-84
2022/02/22 00:30:46;;;;;;;28.67;3.90;;;6.60;99.90;;;;;;4997795;28;20034;-84
2022/02/22 00:33:12;;;;;;;23.05;3.00;;;6.60;99.90;;;;;;5015344;28;20471;-84
2022/02/22 00:35:38;;;;;;;31.48;3.25;;;6.60;99.90;;;;;;5014925;28;20050;-85
2022/02/22 00:38:09;;;;;;;24.23;3.45;;;6.60;99.90;;;;;;5015047;28;20030;-83
2022/02/22 00:40:35;;;;;;;20.13;2.97;;;6.70;99.90;;;;;;5015273;28;20034;-86
2022/02/22 00:43:01;;;;;;;26.30;4.10;;;6.60;99.90;;;;;;5015174;28;20042;-87
2022/02/22 00:45:27;;;;;;;30.42;3.78;;;6.70;99.90;;;;;;5015532;28;20046;-86
2022/02/22 00:47:53;;;;;;;23.55;3.13;;;6.60;99.90;;;;;;5014558;28;20521;-86
2022/02/22 00:50:19;;;;;;;27.77;4.10;;;6.60;99.90;;;;;;5014116;28;20037;-84
2022/02/22 00:52:44;;;;;;;19.92;3.03;;;6.60;99.90;;;;;;5014231;28;20038;-85
2022/02/22 00:55:10;;;;;;;31.17;3.72;;;6.80;99.90;;;;;;5014251;28;20099;-85
2022/02/22 00:57:37;;;;;;;28.35;3.83;;;6.70;99.90;;;;;;5014246;28;20508;-85
2022/02/22 01:00:06;;;;;;;29.20;4.30;;;6.70;99.90;;;;;;5014315;28;20036;-86
2022/02/22 01:02:32;;;;;;;31.58;5.45;;;6.70;99.90;;;;;;4996878;28;20137;-84
2022/02/22 01:04:57;;;;;;;30.73;4.30;;;6.70;99.90;;;;;;5012492;28;20113;-83
2022/02/22 01:07:23;;;;;;;40.20;4.35;;;6.60;99.90;;;;;;5013672;28;20018;-83
2022/02/22 01:09:49;;;;;;;37.20;5.05;;;6.70;99.90;;;;;;4995626;28;20030;-83
2022/02/22 01:12:16;;;;;;;27.25;4.80;;;6.70;99.90;;;;;;5013343;28;20088;-82
2022/02/22 01:14:42;;;;;;;38.83;4.40;;;6.80;99.90;;;;;;4995561;28;20475;-83
2022/02/22 01:17:08;;;;;;;34.03;4.25;;;6.80;99.90;;;;;;5012473;28;20030;-82
2022/02/22 01:19:34;;;;;;;32.20;4.20;;;6.90;99.90;;;;;;5012835;28;20077;-83
2022/02/22 01:21:59;;;;;;;33.08;4.03;;;6.80;99.90;;;;;;5012857;28;20096;-82
2022/02/22 01:24:25;;;;;;;30.52;4.30;;;6.90;99.90;;;;;;5014282;28;20034;-83
2022/02/22 01:26:51;;;;;;;30.10;3.22;;;6.90;99.90;;;;;;5013691;28;20034;-85
2022/02/22 01:29:16;;;;;;;27.98;3.80;;;6.90;99.90;;;;;;5013055;28;20042;-84
2022/02/22 01:31:43;;;;;;;25.05;4.13;;;6.90;99.90;;;;;;5012927;28;20141;-86
2022/02/22 01:34:09;;;;;;;33.67;4.18;;;6.90;99.90;;;;;;4995828;28;20026;-83
2022/02/22 01:36:34;;;;;;;31.08;4.03;;;6.90;99.90;;;;;;5012713;28;20056;-84
2022/02/22 01:39:03;;;;;;;30.23;5.15;;;7.00;99.90;;;;;;5013471;28;20045;-81
2022/02/22 01:41:32;;;;;;;25.92;3.97;;;7.00;99.90;;;;;;5012889;28;20100;-83
2022/02/22 01:44:01;;;;;;;34.67;4.18;;;7.00;99.90;;;;;;5013056;28;20026;-85
2022/02/22 01:46:26;;;;;;;27.58;3.88;;;6.90;99.90;;;;;;5012797;28;20037;-83
2022/02/22 01:48:52;;;;;;;27.45;3.90;;;6.90;99.90;;;;;;5013376;28;20344;-83
2022/02/22 01:51:18;;;;;;;29.02;4.38;;;6.80;99.90;;;;;;4996240;28;20448;-86
2022/02/22 01:53:43;;;;;;;29.63;3.30;;;6.80;99.90;;;;;;5012603;28;20464;-84
2022/02/22 01:56:11;;;;;;;31.48;4.30;;;6.80;99.70;;;;;;5012722;28;20034;-84
2022/02/22 01:58:36;;;;;;;37.58;4.72;;;6.80;99.70;;;;;;5012366;28;20072;-84
2022/02/22 02:01:04;;;;;;;41.10;4.78;;;6.70;99.80;;;;;;5012709;28;20071;-82
2022/02/22 02:03:30;;;;;;;34.63;4.75;;;6.60;99.70;;;;;;5012570;28;20022;-82
2022/02/22 02:05:57;;;;;;;36.13;4.72;;;6.60;99.80;;;;;;4994804;28;20038;-83
2022/02/22 02:08:23;;;;;;;33.80;4.20;;;6.70;99.70;;;;;;5012139;28;20037;-84
2022/02/22 02:10:48;;;;;;;38.63;4.85;;;6.70;99.70;;;;;;5012093;28;20033;-82
2022/02/22 02:13:14;;;;;;;31.10;4.55;;;6.70;99.80;;;;;;5011935;28;20045;-86
2022/02/22 02:15:39;;;;;;;22.05;3.88;;;6.70;99.90;;;;;;5011700;28;20030;-83
2022/02/22 02:18:06;;;;;;;37.03;4.90;;;6.70;99.60;;;;;;5012409;28;20040;-83
2022/02/22 02:20:32;;;;;;;30.48;3.78;;;6.70;99.90;;;;;;4994440;28;20091;-83
2022/02/22 02:22:58;;;;;;;30.10;5.15;;;6.70;99.80;;;;;;5011624;28;20030;-84
2022/02/22 02:25:23;;;;;;;39.75;4.05;;;6.60;99.80;;;;;;5011905;28;20438;-83
2022/02/22 02:27:49;;;;;;;34.03;5.57;;;6.70;99.70;;;;;;5011569;28;20032;-81
2022/02/22 02:30:16;;;;;;;32.55;4.40;;;6.70;99.70;;;;;;5012230;28;20030;-83
2022/02/22 02:32:42;;;;;;;45.15;5.25;;;6.70;99.50;;;;;;5011720;28;20578;-82
2022/02/22 02:35:08;;;;;;;36.97;4.75;;;6.70;99.40;;;;;;5011126;28;20467;-82
2022/02/22 02:37:38;;;;;;;39.33;5.40;;;6.80;99.40;;;;;;5011703;28;20040;-84
2022/02/22 02:40:06;;;;;;;30.70;5.28;;;6.70;99.40;;;;;;5011551;28;20041;-83
2022/02/22 02:42:32;;;;;;;34.33;5.00;;;6.70;99.30;;;;;;5011698;28;20068;-82
2022/02/22 02:44:57;;;;;;;37.58;4.82;;;6.70;99.20;;;;;;4994812;28;20058;-82
2022/02/22 02:47:23;;;;;;;37.65;4.18;;;6.70;99.30;;;;;;5011686;28;20061;-85
2022/02/22 02:49:48;;;;;;;33.47;4.75;;;6.70;99.30;;;;;;4994412;28;20090;-84
2022/02/22 02:52:14;;;;;;;39.88;4.35;;;6.70;99.30;;;;;;4994409;28;20092;-84
2022/02/22 02:54:40;;;;;;;28.85;4.82;;;6.60;99.10;;;;;;5011979;28;20076;-83
2022/02/22 02:57:06;;;;;;;42.17;4.15;;;6.60;99.00;;;;;;5012088;28;20117;-83
2022/02/22 02:59:32;;;;;;;30.00;4.15;;;6.60;99.00;;;;;;5011827;28;20042;-82
2022/02/22 03:01:58;;;;;;;26.98;4.25;;;6.50;99.00;;;;;;5012025;28;20037;-84
2022/02/22 03:04:23;;;;;;;22.83;3.17;;;6.50;98.80;;;;;;4994966;28;20108;-83
2022/02/22 03:06:49;;;;;;;33.72;5.18;;;6.50;98.80;;;;;;5012547;28;20107;-85
2022/02/22 03:09:14;;;;;;;27.55;3.72;;;6.40;98.70;;;;;;5012303;28;20334;-83
2022/02/22 03:11:40;;;;;;;19.15;3.10;;;6.40;98.60;;;;;;5011459;28;20041;-82
2022/02/22 03:14:07;;;;;;;21.55;2.95;;;6.40;97.90;;;;;;5011661;28;20595;-82
2022/02/22 03:16:33;;;;;;;26.67;3.60;;;6.40;97.80;;;;;;5011540;28;20034;-83
2022/02/22 03:19:02;;;;;;;24.67;4.38;;;6.40;97.70;;;;;;5011221;28;20033;-83
2022/02/22 03:21:29;;;;;;;24.10;3.97;;;6.30;97.80;;;;;;4994478;28;20474;-83
2022/02/22 03:23:55;;;;;;;17.38;3.08;;;6.40;97.90;;;;;;4995269;28;20104;-84
2022/02/22 03:26:21;;;;;;;21.80;3.13;;;6.40;98.00;;;;;;5014592;28;20056;-85
2022/02/22 03:28:46;;;;;;;14.82;2.83;;;6.40;98.20;;;;;;5016853;28;20034;-85
2022/02/22 03:31:12;;;;;;;19.80;3.58;;;6.40;98.40;;;;;;5017856;28;20029;-84
2022/02/22 03:33:38;;;;;;;21.60;3.10;;;6.30;98.70;;;;;;5017212;28;20018;-83
2022/02/22 03:36:06;;;;;;;18.30;2.60;;;6.30;99.10;;;;;;5016482;28;20075;-84
2022/02/22 03:38:33;;;;;;;25.38;4.28;;;6.30;99.20;;;;;;4997781;28;20042;-84
2022/02/22 03:41:01;;;;;;;21.27;3.13;;;6.40;99.20;;;;;;4997812;28;20034;-85
2022/02/22 03:43:27;;;;;;;30.50;3.67;;;6.40;99.30;;;;;;5015287;28;20058;-84
2022/02/22 03:45:52;;;;;;;32.90;3.47;;;6.30;99.40;;;;;;5015145;28;20081;-85
2022/02/22 03:48:19;;;;;;;23.60;3.60;;;6.30;99.50;;;;;;5015600;28;20026;-84
2022/02/22 03:50:44;;;;;;;22.05;4.00;;;6.30;99.60;;;;;;5015309;28;20030;-85
2022/02/22 03:53:10;;;;;;;32.58;3.58;;;6.30;99.50;;;;;;5015118;28;20080;-83
2022/02/22 03:55:36;;;;;;;25.55;3.90;;;6.30;99.60;;;;;;4997397;28;20030;-84
2022/02/22 03:58:02;;;;;;;20.10;3.78;;;6.30;99.60;;;;;;5014796;28;20040;-83
2022/02/22 04:00:28;;;;;;;26.50;3.30;;;6.40;99.60;;;;;;5015496;28;20025;-84
2022/02/22 04:02:54;;;;;;;28.60;3.92;;;6.30;99.40;;;;;;5014792;28;20037;-84
2022/02/22 04:05:22;;;;;;;29.33;3.88;;;6.20;99.80;;;;;;4997371;28;20033;-86
2022/02/22 04:07:50;;;;;;;42.55;4.32;;;6.10;99.90;;;;;;4998103;28;20034;-85
2022/02/22 04:10:16;;;;;;;27.17;5.80;;;6.20;99.90;;;;;;5015126;28;20030;-85
2022/02/22 04:12:42;;;;;;;32.65;4.85;;;6.20;99.90;;;;;;5014818;28;20021;-85
2022/02/22 04:15:10;;;;;;;24.77;3.85;;;6.30;99.90;;;;;;5014867;28;20024;-84
2022/02/22 04:17:36;;;;;;;;;;;6.30;99.90;;;;;;5015450;28;20038;-85
2022/02/22 04:20:03;;;;;;;36.92;4.57;;;6.40;99.80;;;;;;5014315;28;19918;-85
2022/02/22 04:22:28;;;;;;;33.90;3.80;;;6.30;99.90;;;;;;5014118;28;20446;-83
2022/02/22 04:24:54;;;;;;;36.22;3.97;;;6.30;99.90;;;;;;5014637;28;20034;-86
2022/02/22 04:27:27;;;;;;;32.90;4.85;;;6.20;99.80;;;;;;5016309;28;20062;-86
2022/02/22 04:29:58;;;;;;;37.08;4.72;;;6.20;99.80;;;;;;5016197;28;20026;-87
2022/02/22 04:32:26;;;;;;;36.88;4.72;;;6.20;99.70;;;;;;4998335;28;20026;-86
2022/02/22 04:34:52;;;;;;;41.63;5.28;;;6.20;99.70;;;;;;5015098;28;20444;-87
2022/02/22 04:37:18;;;;;;;46.95;5.43;;;6.20;99.50;;;;;;5014722;28;20092;-84
2022/02/22 04:39:44;;;;;;;37.63;4.85;;;6.30;99.50;;;;;;4996992;28;20026;-86
2022/02/22 04:42:12;;;;;;;45.00;5.60;;;6.30;99.50;;;;;;5015018;28;20392;-84
2022/02/22 04:44:39;;;;;;;35.80;5.10;;;6.30;99.50;;;;;;5014349;28;20108;-87
2022/02/22 04:47:08;;;;;;;43.47;4.88;;;6.10;99.50;;;;;;5014411;28;20046;-86
2022/02/22 04:49:34;;;;;;;44.05;5.03;;;6.20;99.70;;;;;;5014313;28;20045;-85
2022/02/22 04:52:00;;;;;;;29.75;3.70;;;6.30;99.80;;;;;;5015006;28;20038;-86
2022/02/22 04:54:27;;;;;;;42.33;5.70;;;6.30;99.50;;;;;;4997351;28;20049;-86
2022/02/22 04:56:52;;;;;;;36.72;5.00;;;6.20;99.50;;;;;;4997061;28;20073;-85
2022/02/22 04:59:19;;;;;;;38.30;4.50;;;6.30;99.50;;;;;;4996737;28;20490;-84
2022/02/22 05:01:45;;;;;;;34.83;4.32;;;6.30;99.60;;;;;;5013874;28;20063;-86
2022/02/22 05:04:11;;;;;;;28.40;4.82;;;6.30;99.80;;;;;;4997287;28;20026;-86
2022/02/22 05:06:37;;;;;;;33.20;4.13;;;6.30;99.90;;;;;;5014726;28;20037;-84
2022/02/22 05:09:04;;;;;;;23.42;3.30;;;6.20;99.90;;;;;;5014370;28;20022;-86
2022/02/22 05:11:30;;;;;;;30.05;4.60;;;6.20;99.90;;;;;;5013737;28;20037;-84
2022/02/22 05:13:56;;;;;;;19.98;3.42;;;6.10;99.90;;;;;;4996284;28;20390;-84
2022/02/22 05:16:21;;;;;;;20.08;3.35;;;6.10;99.90;;;;;;5014150;28;20041;-86
2022/02/22 05:18:47;;;;;;;18.25;3.53;;;6.10;99.90;;;;;;5014002;28;20029;-85
2022/02/22 05:21:14;;;;;;;19.08;3.17;;;6.10;99.90;;;;;;5014807;28;20390;-86
2022/02/22 05:23:41;;;;;;;22.83;4.68;;;6.10;99.90;;;;;;5015711;28;20101;-84
2022/02/22 05:26:11;;;;;;;31.60;4.78;;;6.10;99.90;;;;;;4999169;28;20486;-85
2022/02/22 05:28:40;;;;;;;33.15;3.58;;;6.20;99.90;;;;;;5016160;28;20701;-85
2022/02/22 05:31:05;;;;;;;35.35;4.65;;;6.20;99.90;;;;;;5014341;28;20095;-87
2022/02/22 05:33:31;;;;;;;28.58;3.75;;;6.20;99.90;;;;;;4995215;28;20044;-81
2022/02/22 05:35:57;;;;;;;36.08;4.85;;;6.20;99.90;;;;;;4995638;28;20374;-84
2022/02/22 05:38:24;;;;;;;28.23;3.95;;;6.20;99.90;;;;;;4996330;28;20064;-82
2022/02/22 05:40:49;;;;;;;43.90;5.40;;;6.20;99.90;;;;;;4995692;28;20030;-84
2022/02/22 05:43:15;;;;;;;40.28;5.55;;;6.10;99.90;;;;;;4995516;28;20268;-85
2022/02/22 05:45:40;;;;;;;27.10;4.57;;;6.20;99.90;;;;;;5012465;28;20460;-85
2022/02/22 05:48:06;;;;;;;30.08;4.72;;;6.10;99.90;;;;;;4995916;28;20022;-84
2022/02/22 05:50:33;;;;;;;37.78;5.38;;;6.10;99.90;;;;;;5012111;28;20418;-84
2022/02/22 05:52:59;;;;;;;38.97;5.90;;;6.10;99.90;;;;;;4995025;28;20156;-83
2022/02/22 05:55:25;;;;;;;27.80;4.60;;;6.00;99.90;;;;;;4995400;28;20045;-85
2022/02/22 05:57:51;;;;;;;31.73;4.70;;;6.00;99.90;;;;;;5012701;28;20048;-85
2022/02/22 06:00:17;;;;;;;32.33;4.95;;;6.00;99.90;;;;;;5012507;28;20033;-83
2022/02/22 06:02:43;;;;;;;43.10;5.22;;;6.10;99.90;;;;;;5012348;28;20026;-82
2022/02/22 06:05:09;;;;;;;40.65;5.40;;;6.10;99.90;;;;;;5012971;28;20037;-82
2022/02/22 06:07:35;;;;;;;36.13;4.35;;;6.00;99.90;;;;;;5012951;28;20026;-84
2022/02/22 06:10:01;;;;;;;29.98;4.45;;;6.00;99.90;;;;;;5012600;28;20121;-83
2022/02/22 06:12:28;;;;;;;37.55;5.80;;;6.00;99.90;;;;;;5012939;28;20038;-83
2022/02/22 06:14:54;;;;;;;37.33;5.38;;;6.00;99.90;;;;;;5012620;28;20030;-85
2022/02/22 06:17:21;;;;;;;30.55;4.70;;;6.10;99.90;;;;;;5012494;28;20036;-84
2022/02/22 06:19:47;;;;;;;47.58;5.80;;;6.00;99.90;;;;;;5012821;28;20113;-85
2022/02/22 06:22:12;;;;;;;36.92;4.82;;;6.00;99.90;;;;;;4996316;28;20428;-85
2022/02/22 06:24:38;;;;;;;39.85;4.65;;;5.90;99.90;;;;;;5012477;28;20462;-86
2022/02/22 06:27:04;;;;;;;28.75;5.28;;;6.00;99.90;;;;;;5013463;28;20021;-85
2022/02/22 06:29:30;;;;;;;25.60;4.10;;;6.00;99.90;;;;;;4995472;28;20472;-85
2022/02/22 06:31:57;;;;;;;31.75;5.20;;;6.00;99.90;;;;;;5012752;28;20030;-86
2022/02/22 06:34:23;;;;;;;36.67;4.47;;;5.90;99.90;;;;;;4994786;28;20125;-81
2022/02/22 06:36:48;;;;;;;41.83;5.10;;;5.90;99.90;;;;;;5011845;28;20048;-83
2022/02/22 06:39:15;;;;;;;35.72;4.80;;;5.90;99.90;;;;;;5012383;28;20558;-83
2022/02/22 06:41:41;;;;;;;36.92;5.00;;;5.90;99.90;;;;;;5011906;28;20026;-82
2022/02/22 06:44:08;;;;;;;36.80;4.90;;;5.90;99.90;;;;;;5012012;28;20040;-83
2022/02/22 06:46:34;;;;;;;43.27;4.97;;;5.80;99.90;;;;;;5012500;28;20030;-87
2022/02/22 06:48:59;;;;;;;34.45;4.47;;;5.80;99.90;;;;;;5013677;28;20325;-86
2022/02/22 06:51:31;;;;;;;38.10;4.53;;;5.90;99.90;;;;;;5014736;28;20090;-91
2022/02/22 06:53:57;;;;;;;22.25;5.20;;;6.00;99.90;;;;;;4997081;28;20780;-91
2022/02/22 06:56:31;;;;;;;36.50;4.82;;;5.90;99.90;;;;;;5014759;28;20027;-89
2022/02/22 06:58:58;;;;;;;29.92;3.90;;;6.00;99.90;;;;;;5013196;28;20026;-88
2022/02/22 07:01:24;;;;;;;32.97;4.47;;;6.00;99.90;;;;;;4996208;28;20030;-82
2022/02/22 07:03:49;;;;;;;29.08;4.72;;;6.00;99.90;;;;;;4994990;28;20038;-85
2022/02/22 07:06:15;;;;;;;38.08;4.65;;;6.00;99.90;;;;;;4998870;28;20348;-81
2022/02/22 07:08:41;;;;;;;31.02;5.28;;;6.10;99.90;;;;;;4996543;28;20074;-89
2022/02/22 07:11:07;;;;;;;44.25;5.45;;;6.10;99.90;;;;;;4998684;28;20034;-88
2022/02/22 07:13:33;;;;;;;33.67;4.30;;;6.20;99.90;;;;;;4998698;28;20038;-77
2022/02/22 07:15:58;;;;;;;35.22;6.10;;;6.20;99.90;;;;;;5000259;28;20349;-89
2022/02/22 07:18:24;;;;;;;38.53;4.57;;;6.30;99.90;;;;;;5000073;28;20109;-87
2022/02/22 07:20:50;;;;;;;44.08;4.70;;;6.40;99.90;;;;;;4996144;28;20090;-86
2022/02/22 07:23:17;;;;;;;44.03;5.32;;;6.40;99.90;;;;;;4997159;28;20053;-87
2022/02/22 07:25:43;;;;;;;32.33;5.60;;;6.40;99.90;;;;;;4998614;28;20030;-89
2022/02/22 07:28:08;;;;;;;43.70;5.07;;;6.40;99.90;;;;;;4997563;28;20475;-90
2022/02/22 07:30:34;;;;;;;39.45;5.78;;;6.50;99.90;;;;;;4997538;28;20030;-88
2022/02/22 07:33:02;;;;;;;33.67;4.43;;;6.50;99.90;;;;;;4998294;28;20030;-88
2022/02/22 07:35:29;;;;;;;38.28;4.75;;;6.50;99.90;;;;;;4999986;28;20053;-89
2022/02/22 07:37:56;;;;;;;41.78;5.63;;;6.40;99.90;;;;;;4999354;28;20049;-86
2022/02/22 07:40:23;;;;;;;49.67;10.32;;;6.40;99.90;;;;;;5017498;28;20045;-91
2022/02/22 07:42:48;;;;;;;32.22;5.40;;;6.50;99.90;;;;;;5018794;28;20030;-92
2022/02/22 07:45:16;;;;;;;34.53;4.75;;;6.60;99.90;;;;;;5019346;28;20018;-92
2022/02/22 07:47:44;;;;;;;30.48;4.50;;;6.70;99.90;;;;;;5000995;28;20030;-92
2022/02/22 07:50:11;;;;;;;31.88;4.82;;;6.70;99.60;;;;;;5018752;28;20108;-86
2022/02/22 07:52:37;;;;;;;30.40;4.20;;;6.70;99.70;;;;;;5001923;28;20333;-93
2022/02/22 07:55:04;;;;;;;27.58;4.60;;;6.80;99.50;;;;;;5018786;28;20026;-89
2022/02/22 07:57:30;;;;;;;39.10;4.57;;;6.80;99.60;;;;;;5001028;28;20058;-90
2022/02/22 07:59:58;;;;;;;35.30;4.28;;;6.80;99.50;;;;;;5017505;28;20049;-85
2022/02/22 08:02:30;;;;;;;43.95;5.10;;;6.90;99.60;;;;;;5015944;28;20368;-88
2022/02/22 08:04:58;;;;;;;32.10;4.63;;;6.80;99.60;;;;;;5018071;28;20045;-86
2022/02/22 08:07:23;;;;;;;39.28;5.20;;;6.90;99.60;;;;;;5018936;28;20095;-93
2022/02/22 08:09:49;;;;;;;39.55;4.45;;;7.00;99.60;;;;;;5002091;28;20026;-92
2022/02/22 08:12:15;;;;;;;35.25;4.25;;;7.00;99.40;;;;;;5019435;28;20608;-88
2022/02/22 08:14:42;;;;;;;29.65;4.50;;;7.10;99.40;;;;;;4998943;28;20117;-88
2022/02/22 08:17:09;;;;;;;23.40;4.30;;;7.10;99.30;;;;;;5017520;28;20058;-91
2022/02/22 08:19:35;;;;;;;41.55;5.13;;;7.00;99.30;;;;;;5017912;28;20037;-89
2022/02/22 08:22:01;;;;;;;47.08;7.15;;;7.00;99.20;;;;;;5017064;28;20042;-90
2022/02/22 08:24:26;;;;;;;40.97;5.35;;;7.00;99.50;;;;;;5017410;28;20054;-92
2022/02/22 08:26:54;;;;;;;29.75;4.80;;;7.10;99.50;;;;;;4998910;28;20092;-87
2022/02/22 08:29:21;;;;;;;29.17;4.15;;;7.10;99.30;;;;;;5016840;28;20041;-89
2022/02/22 08:31:47;;;;;;;31.00;4.32;;;7.20;99.40;;;;;;5016852;28;20030;-86
2022/02/22 08:34:12;;;;;;;43.17;5.80;;;7.30;99.20;;;;;;5022790;28;20160;-86
2022/02/22 08:36:38;;;;;;;35.10;4.80;;;7.40;99.10;;;;;;5016892;28;20375;-88
2022/02/22 08:39:05;;;;;;;30.70;4.90;;;7.50;99.00;;;;;;5017312;28;20049;-96
2022/02/22 08:41:30;;;;;;;34.80;4.00;;;7.60;99.00;;;;;;5017056;28;20037;-90
2022/02/22 08:43:57;;;;;;;32.17;4.57;;;7.80;98.80;;;;;;5017297;28;20030;-89
2022/02/22 08:46:24;;;;;;;24.80;4.00;;;7.80;98.50;;;;;;5016923;28;20076;-88
2022/02/22 08:48:50;;;;;;;30.13;3.85;;;7.90;98.60;;;;;;5015423;28;20061;-85
2022/02/22 08:51:16;;;;;;;35.17;4.88;;;8.00;98.40;;;;;;5018200;28;20096;-84
2022/02/22 08:53:42;;;;;;;47.22;5.55;;;8.00;98.20;;;;;;4997094;28;20026;-75
2022/02/22 08:56:09;;;;;;;25.15;4.57;;;8.20;98.10;;;;;;5014441;28;20037;-88
2022/02/22 08:58:34;;;;;;;30.52;5.03;;;8.30;97.80;;;;;;4996171;28;20541;-85
2022/02/22 09:01:00;;;;;;;36.72;5.35;;;8.70;97.80;;;;;;5012697;28;20338;-82
2022/02/22 09:03:26;;;;;;;26.83;4.10;;;9.00;97.20;;;;;;5014306;28;20069;-82
2022/02/22 09:05:52;;;;;;;32.60;4.93;;;9.40;96.80;;;;;;4999637;28;20079;-86
2022/02/22 09:08:19;;;;;;;19.00;3.92;;;10.00;96.10;;;;;;5017438;28;20460;-84
2022/02/22 09:10:46;;;;;;;22.27;4.57;;;10.50;95.70;;;;;;5003249;28;20041;-84
2022/02/22 09:13:12;;;;;;;19.75;4.00;;;10.80;94.90;;;;;;5017264;28;20320;-85
2022/02/22 09:15:38;;;;;;;27.63;4.40;;;11.20;94.30;;;;;;5006234;28;20090;-88
2022/02/22 09:18:04;;;;;;;26.58;3.72;;;11.50;93.80;;;;;;5025574;28;20037;-87
2022/02/22 09:20:30;;;;;;;27.98;4.85;;;11.30;93.40;;;;;;5019473;28;20049;-83
2022/02/22 09:22:56;;;;;;;22.08;4.40;;;11.30;93.30;;;;;;4998746;28;20576;-81
2022/02/22 09:25:22;;;;;;;25.80;4.82;;;11.50;93.00;;;;;;5016853;28;20125;-82
2022/02/22 09:27:49;;;;;;;29.20;5.05;;;11.60;93.00;;;;;;5004802;28;20049;-89
2022/02/22 09:30:17;;;;;;;25.70;4.03;;;11.40;92.60;;;;;;5026107;28;20025;-81
2022/02/22 09:32:44;;;;;;;22.85;3.85;;;12.10;92.10;;;;;;5003546;28;20030;-87
2022/02/22 09:35:12;;;;;;;28.83;3.88;;;12.30;91.60;;;;;;4999738;28;20489;-87
2022/02/22 09:37:38;;;;;;;25.67;4.57;;;12.30;91.60;;;;;;5006264;28;20034;-84
2022/02/22 09:40:04;;;;;;;25.30;4.75;;;12.80;91.00;;;;;;5018644;28;20065;-85
2022/02/22 09:42:30;;;;;;;25.92;4.22;;;12.10;89.20;;;;;;5000638;28;20062;-89
2022/02/22 09:44:58;;;;;;;21.25;3.58;;;12.60;90.50;;;;;;5020256;28;20111;-91
2022/02/22 09:47:25;;;;;;;19.48;3.53;;;13.00;89.20;;;;;;5020898;28;20130;-85
2022/02/22 09:49:50;;;;;;;22.20;4.50;;;12.90;88.80;;;;;;5000675;28;20097;-89
2022/02/22 09:52:16;;;;;;;23.77;4.75;;;12.70;89.20;;;;;;5019130;28;20437;-89
2022/02/22 09:54:42;;;;;;;27.40;5.13;;;12.40;89.80;;;;;;5000069;28;20087;-93
2022/02/22 09:57:10;;;;;;;19.80;3.45;;;12.30;90.10;;;;;;5001484;28;20536;-94
2022/02/22 09:59:35;;;;;;;22.60;4.13;;;12.00;88.60;;;;;;5017693;28;20026;-82
2022/02/22 10:02:01;;;;;;;18.48;3.60;;;12.00;89.20;;;;;;5013482;28;20030;-82
2022/02/22 10:04:27;;;;;;;20.58;3.92;;;12.00;89.90;;;;;;4996638;28;20042;-90
2022/02/22 10:07:03;;;;;;;24.35;3.75;;;12.10;89.20;;;;;;5014815;28;20030;-83
2022/02/22 10:09:30;;;;;;;19.17;3.25;;;11.80;90.50;;;;;;5013396;28;20112;-83
2022/02/22 10:11:55;;;;;;;29.55;4.05;;;11.30;89.70;;;;;;5012130;28;20034;-81
2022/02/22 10:14:28;;;;;;;28.80;4.35;;;11.00;90.90;;;;;;5014355;28;20045;-84
2022/02/22 10:16:55;;;;;;;16.65;3.38;;;11.40;91.20;;;;;;5012340;28;20042;-81
2022/02/22 10:19:23;;;;;;;23.10;4.25;;;11.90;90.90;;;;;;5013946;28;20033;-86
2022/02/22 10:21:59;;;;;;;17.13;2.95;;;12.50;90.40;;;;;;5013074;28;20092;-79
2022/02/22 10:24:27;;;;;;;26.52;4.55;;;13.40;89.10;;;;;;5000263;28;20036;-88
2022/02/22 10:27:08;;;;;;;14.63;2.85;;;14.10;87.50;;;;;;5016708;28;20068;-88
2022/02/22 10:29:36;;;;;;;16.48;3.90;;;14.10;85.90;;;;;;5017162;28;20514;-87
2022/02/22 10:32:16;;;;;;;24.50;3.30;;;13.90;84.30;;;;;;5017517;28;20049;-95
2022/02/22 10:34:42;;;;;;;16.25;3.13;;;13.60;84.20;;;;;;4999401;28;20034;-81
2022/02/22 10:37:08;;;;;;;19.42;3.17;;;13.60;83.70;;;;;;4994051;28;20057;-87
2022/02/22 10:39:34;;;;;;;15.30;3.00;;;12.80;83.20;;;;;;5011943;28;20022;-82
2022/02/22 10:42:00;;;;;;;21.13;3.97;;;12.70;84.80;;;;;;4995111;28;20262;-78
2022/02/22 10:44:34;;;;;;;16.27;3.60;;;12.40;86.00;;;;;;5012073;28;20077;-86
2022/02/22 10:47:00;;;;;;;23.50;3.28;;;12.50;85.50;;;;;;4994790;28;20034;-84
2022/02/22 10:49:31;;;;;;;19.67;3.28;;;12.80;85.60;;;;;;5012766;28;20041;-86
2022/02/22 10:52:04;;;;;;;26.27;3.67;;;12.60;85.70;;;;;;5011322;28;20030;-92
2022/02/22 10:54:30;;;;;;;19.15;3.33;;;12.40;84.40;;;;;;4994798;28;20238;-83
2022/02/22 10:56:56;;;;;;;26.05;4.18;;;12.30;85.80;;;;;;4995161;28;20038;-89
2022/02/22 10:59:24;;;;;;;14.20;3.30;;;11.80;85.20;;;;;;4998133;28;20612;-88
2022/02/22 11:01:55;;;;;;;22.30;4.20;;;12.00;86.40;;;;;;5016863;28;20471;-85
2022/02/22 11:04:21;;;;;;;20.40;5.10;;;11.80;86.80;;;;;;5014484;28;20053;-84
2022/02/22 11:06:47;;;;;;;24.90;4.18;;;11.80;87.70;;;;;;5013979;28;20060;-84
2022/02/22 11:09:23;;;;;;;29.17;4.35;;;11.90;87.20;;;;;;5013309;28;20045;-83
2022/02/22 11:11:59;;;;;;;18.35;2.97;;;11.60;86.20;;;;;;5013143;28;20034;-85
2022/02/22 11:14:29;;;;;;;15.55;3.10;;;11.80;87.00;;;;;;4998001;28;20034;-86
2022/02/22 11:17:16;;;;;;;19.50;3.50;;;11.90;86.20;;;;;;5013914;28;20069;-84
2022/02/22 11:19:45;;;;;;;23.20;3.42;;;11.90;85.80;;;;;;5012333;28;20415;-83
2022/02/22 11:22:19;;;;;;;24.20;3.80;;;11.50;85.70;;;;;;5012929;28;20036;-87
2022/02/22 11:24:50;;;;;;;19.48;3.33;;;11.30;86.00;;;;;;5012765;28;20460;-85
2022/02/22 11:27:28;;;;;;;22.02;3.28;;;11.50;86.90;;;;;;4996086;28;20100;-85
2022/02/22 11:30:04;;;;;;;23.30;3.85;;;11.10;87.10;;;;;;5012750;28;20499;-87
2022/02/22 11:32:29;;;;;;;26.52;4.28;;;11.10;87.10;;;;;;5013130;28;20038;-86
2022/02/22 11:34:55;;;;;;;20.48;3.53;;;10.70;87.50;;;;;;5012847;28;20050;-87
2022/02/22 11:37:29;;;;;;;21.75;3.22;;;10.90;87.90;;;;;;5013279;28;20399;-86
2022/02/22 11:39:55;;;;;;;27.55;6.38;;;10.80;88.00;;;;;;5013074;28;20052;-88
2022/02/22 11:42:33;;;;;;;20.30;4.07;;;11.10;87.90;;;;;;5013800;28;20097;-89
2022/02/22 11:45:01;;;;;;;22.40;3.15;;;10.80;87.60;;;;;;4996400;28;20662;-84
2022/02/22 11:47:27;;;;;;;;;;;10.80;87.40;;;;;;5012235;28;20421;-83
2022/02/22 11:49:56;;;;;;;17.17;3.17;;;11.10;87.60;;;;;;5015866;28;20499;-87
2022/02/22 11:52:44;;;;;;;22.10;3.78;;;11.00;86.10;;;;;;5016156;28;20046;-90
2022/02/22 11:55:13;;;;;;;22.40;3.38;;;11.00;86.30;;;;;;4998429;28;20026;-87
2022/02/22 11:57:59;;;;;;;23.17;3.72;;;11.20;87.00;;;;;;5016788;28;20025;-85
2022/02/22 12:00:33;;;;;;;26.90;3.58;;;11.30;86.60;;;;;;5016233;28;20034;-84
2022/02/22 12:03:07;;;;;;;15.10;3.47;;;11.30;86.90;;;;;;5018056;28;20124;-84
2022/02/22 12:05:38;;;;;;;17.08;3.20;;;11.30;86.90;;;;;;4998902;28;20029;-83
2022/02/22 12:08:08;;;;;;;23.17;4.22;;;11.20;86.90;;;;;;5015799;28;20022;-83
2022/02/22 12:10:55;;;;;;;23.67;3.67;;;11.20;87.00;;;;;;4997724;28;20099;-83
2022/02/22 12:13:46;;;;;;;18.43;3.20;;;11.20;87.80;;;;;;5014061;28;20053;-83
2022/02/22 12:16:22;;;;;;;17.90;3.38;;;11.10;87.90;;;;;;4996886;28;20180;-80
2022/02/22 12:18:50;;;;;;;23.75;3.25;;;11.10;88.20;;;;;;5013883;28;20021;-78
2022/02/22 12:21:21;;;;;;;18.20;4.10;;;11.30;88.50;;;;;;5014487;28;20029;-81
2022/02/22 12:23:47;;;;;;;20.42;3.80;;;11.30;88.70;;;;;;5014864;28;20040;-80
2022/02/22 12:26:15;;;;;;;30.08;3.92;;;11.30;88.60;;;;;;5015124;28;20022;-80
2022/02/22 12:28:46;;;;;;;24.95;3.55;;;11.20;88.40;;;;;;5014931;28;20038;-82
2022/02/22 12:31:32;;;;;;;19.65;3.15;;;11.20;88.50;;;;;;5014435;28;20040;-81
2022/02/22 12:34:18;;;;;;;19.60;3.75;;;11.10;88.80;;;;;;5013417;28;20759;-81
2022/02/22 12:36:46;;;;;;;21.15;3.25;;;11.00;89.20;;;;;;5013555;28;20495;-80
2022/02/22 12:39:17;;;;;;;12.85;2.70;;;11.00;89.30;;;;;;5014259;28;20115;-82
2022/02/22 12:41:48;;;;;;;16.88;3.10;;;11.10;89.50;;;;;;5013593;28;20073;-84
2022/02/22 12:44:17;;;;;;;26.35;4.30;;;10.90;89.00;;;;;;5013916;28;20061;-84
2022/02/22 12:46:45;;;;;;;22.45;3.05;;;10.70;89.40;;;;;;5016126;28;20462;-91